sensor_id;sensor_type;location;lat;lon;timestamp;P1;durP1;ratioP1;P2;durP2;ratioP2
74080;SDS011;62438;52.228;6.864;2022-12-18T00:01:56;45.53;;;15.35;;
74080;SDS011;62438;52.228;6.864;2022-12-18T00:03:59;37.72;;;13.35;;
74080;SDS011;62438;52.228;6.864;2022-12-18T00:06:01;33.75;;;12.55;;
74080;SDS011;62438;52.228;6.864;2022-12-18T00:08:02;44.05;;;13.30;;
74080;SDS011;62438;52.228;6.864;2022-12-18T00:10:03;35.38;;;12.40;;
74080;SDS011;62438;52.228;6.864;2022-12-18T00:12:04;42.35;;;15.05;;
74080;SDS011;62438;52.228;6.864;2022-12-18T00:14:04;48.72;;;16.77;;
74080;SDS011;62438;52.228;6.864;2022-12-18T00:16:06;37.10;;;14.82;;
74080;SDS011;62438;52.228;6.864;2022-12-18T00:18:09;42.10;;;14.75;;
74080;SDS011;62438;52.228;6.864;2022-12-18T00:20:09;37.10;;;13.73;;
74080;SDS011;62438;52.228;6.864;2022-12-18T00:22:10;36.55;;;14.10;;
74080;SDS011;62438;52.228;6.864;2022-12-18T00:24:11;41.70;;;15.60;;
74080;SDS011;62438;52.228;6.864;2022-12-18T00:26:16;36.17;;;14.90;;
74080;SDS011;62438;52.228;6.864;2022-12-18T00:28:21;37.35;;;13.25;;
74080;SDS011;62438;52.228;6.864;2022-12-18T00:30:22;44.78;;;14.40;;
74080;SDS011;62438;52.228;6.864;2022-12-18T00:32:22;31.60;;;13.15;;
74080;SDS011;62438;52.228;6.864;2022-12-18T00:34:22;33.85;;;12.65;;
74080;SDS011;62438;52.228;6.864;2022-12-18T00:36:24;44.10;;;15.10;;
74080;SDS011;62438;52.228;6.864;2022-12-18T00:38:26;39.13;;;13.25;;
74080;SDS011;62438;52.228;6.864;2022-12-18T00:40:27;32.65;;;11.32;;
74080;SDS011;62438;52.228;6.864;2022-12-18T00:42:27;37.63;;;14.10;;
74080;SDS011;62438;52.228;6.864;2022-12-18T00:44:46;44.47;;;14.73;;
74080;SDS011;62438;52.228;6.864;2022-12-18T00:46:47;38.88;;;13.85;;
74080;SDS011;62438;52.228;6.864;2022-12-18T00:48:51;45.85;;;15.10;;
74080;SDS011;62438;52.228;6.864;2022-12-18T00:50:51;38.90;;;13.40;;
74080;SDS011;62438;52.228;6.864;2022-12-18T00:52:52;38.45;;;13.07;;
74080;SDS011;62438;52.228;6.864;2022-12-18T00:54:52;40.33;;;12.35;;
74080;SDS011;62438;52.228;6.864;2022-12-18T00:56:52;42.05;;;12.23;;
74080;SDS011;62438;52.228;6.864;2022-12-18T00:58:55;40.70;;;12.32;;
74080;SDS011;62438;52.228;6.864;2022-12-18T01:00:55;31.27;;;10.65;;
74080;SDS011;62438;52.228;6.864;2022-12-18T01:02:55;32.05;;;11.70;;
74080;SDS011;62438;52.228;6.864;2022-12-18T01:04:56;34.10;;;12.30;;
74080;SDS011;62438;52.228;6.864;2022-12-18T01:06:56;39.92;;;14.68;;
74080;SDS011;62438;52.228;6.864;2022-12-18T01:08:58;40.90;;;14.23;;
74080;SDS011;62438;52.228;6.864;2022-12-18T01:10:58;34.13;;;11.82;;
74080;SDS011;62438;52.228;6.864;2022-12-18T01:12:59;48.10;;;14.93;;
74080;SDS011;62438;52.228;6.864;2022-12-18T01:14:59;38.90;;;13.05;;
74080;SDS011;62438;52.228;6.864;2022-12-18T01:16:59;35.58;;;11.82;;
74080;SDS011;62438;52.228;6.864;2022-12-18T01:19:02;35.13;;;12.50;;
74080;SDS011;62438;52.228;6.864;2022-12-18T01:21:10;29.83;;;10.75;;
74080;SDS011;62438;52.228;6.864;2022-12-18T01:23:12;38.92;;;13.52;;
74080;SDS011;62438;52.228;6.864;2022-12-18T01:25:12;34.45;;;12.02;;
74080;SDS011;62438;52.228;6.864;2022-12-18T01:27:13;36.45;;;12.63;;
74080;SDS011;62438;52.228;6.864;2022-12-18T01:29:13;29.08;;;11.88;;
74080;SDS011;62438;52.228;6.864;2022-12-18T01:31:24;30.98;;;11.07;;
74080;SDS011;62438;52.228;6.864;2022-12-18T01:33:29;35.80;;;12.27;;
74080;SDS011;62438;52.228;6.864;2022-12-18T01:35:29;36.95;;;10.43;;
74080;SDS011;62438;52.228;6.864;2022-12-18T01:37:29;27.10;;;10.63;;
74080;SDS011;62438;52.228;6.864;2022-12-18T01:39:30;39.80;;;12.07;;
74080;SDS011;62438;52.228;6.864;2022-12-18T01:41:32;31.73;;;11.38;;
74080;SDS011;62438;52.228;6.864;2022-12-18T01:45:52;32.28;;;11.80;;
74080;SDS011;62438;52.228;6.864;2022-12-18T01:47:54;30.17;;;10.63;;
74080;SDS011;62438;52.228;6.864;2022-12-18T01:50:07;20.27;;;7.65;;
74080;SDS011;62438;52.228;6.864;2022-12-18T01:52:17;28.98;;;10.45;;
74080;SDS011;62438;52.228;6.864;2022-12-18T01:54:20;31.48;;;11.18;;
74080;SDS011;62438;52.228;6.864;2022-12-18T01:56:20;30.08;;;9.98;;
74080;SDS011;62438;52.228;6.864;2022-12-18T01:58:23;35.97;;;11.27;;
74080;SDS011;62438;52.228;6.864;2022-12-18T02:00:30;31.02;;;9.80;;
74080;SDS011;62438;52.228;6.864;2022-12-18T02:02:31;29.02;;;10.88;;
74080;SDS011;62438;52.228;6.864;2022-12-18T02:04:31;26.67;;;9.43;;
74080;SDS011;62438;52.228;6.864;2022-12-18T02:06:36;33.75;;;12.07;;
74080;SDS011;62438;52.228;6.864;2022-12-18T02:08:43;33.92;;;10.75;;
74080;SDS011;62438;52.228;6.864;2022-12-18T02:13:29;31.60;;;11.82;;
74080;SDS011;62438;52.228;6.864;2022-12-18T02:16:07;26.02;;;10.13;;
74080;SDS011;62438;52.228;6.864;2022-12-18T02:18:10;29.10;;;10.50;;
74080;SDS011;62438;52.228;6.864;2022-12-18T02:22:20;31.52;;;10.40;;
74080;SDS011;62438;52.228;6.864;2022-12-18T02:27:07;29.45;;;9.70;;
74080;SDS011;62438;52.228;6.864;2022-12-18T02:29:52;29.40;;;10.68;;
74080;SDS011;62438;52.228;6.864;2022-12-18T02:31:39;22.75;;;8.45;;
74080;SDS011;62438;52.228;6.864;2022-12-18T02:33:45;27.38;;;9.98;;
74080;SDS011;62438;52.228;6.864;2022-12-18T02:35:47;23.25;;;8.98;;
74080;SDS011;62438;52.228;6.864;2022-12-18T02:37:48;26.73;;;9.85;;
74080;SDS011;62438;52.228;6.864;2022-12-18T02:39:54;26.60;;;10.98;;
74080;SDS011;62438;52.228;6.864;2022-12-18T02:41:57;29.08;;;10.73;;
74080;SDS011;62438;52.228;6.864;2022-12-18T02:43:59;28.52;;;10.48;;
74080;SDS011;62438;52.228;6.864;2022-12-18T02:48:37;27.48;;;9.32;;
74080;SDS011;62438;52.228;6.864;2022-12-18T02:50:40;29.05;;;10.38;;
74080;SDS011;62438;52.228;6.864;2022-12-18T02:55:27;23.55;;;9.07;;
74080;SDS011;62438;52.228;6.864;2022-12-18T02:57:54;27.27;;;7.78;;
74080;SDS011;62438;52.228;6.864;2022-12-18T03:00:27;25.10;;;9.90;;
74080;SDS011;62438;52.228;6.864;2022-12-18T03:06:58;22.98;;;10.45;;
74080;SDS011;62438;52.228;6.864;2022-12-18T03:09:09;20.00;;;8.98;;
74080;SDS011;62438;52.228;6.864;2022-12-18T03:11:14;24.00;;;9.65;;
74080;SDS011;62438;52.228;6.864;2022-12-18T03:13:23;25.38;;;10.35;;
74080;SDS011;62438;52.228;6.864;2022-12-18T03:15:29;25.50;;;8.98;;
74080;SDS011;62438;52.228;6.864;2022-12-18T03:17:34;28.92;;;9.50;;
74080;SDS011;62438;52.228;6.864;2022-12-18T03:19:35;27.70;;;9.90;;
74080;SDS011;62438;52.228;6.864;2022-12-18T03:21:40;29.13;;;10.13;;
74080;SDS011;62438;52.228;6.864;2022-12-18T03:23:52;32.53;;;10.10;;
74080;SDS011;62438;52.228;6.864;2022-12-18T03:25:56;21.15;;;9.07;;
74080;SDS011;62438;52.228;6.864;2022-12-18T03:28:00;33.20;;;9.38;;
74080;SDS011;62438;52.228;6.864;2022-12-18T03:30:04;29.85;;;9.90;;
74080;SDS011;62438;52.228;6.864;2022-12-18T03:32:11;27.48;;;8.80;;
74080;SDS011;62438;52.228;6.864;2022-12-18T03:34:15;22.05;;;9.18;;
74080;SDS011;62438;52.228;6.864;2022-12-18T03:36:21;28.67;;;10.73;;
74080;SDS011;62438;52.228;6.864;2022-12-18T03:38:22;24.17;;;9.07;;
74080;SDS011;62438;52.228;6.864;2022-12-18T03:40:25;24.75;;;9.38;;
74080;SDS011;62438;52.228;6.864;2022-12-18T03:42:32;27.50;;;8.63;;
74080;SDS011;62438;52.228;6.864;2022-12-18T03:44:50;22.02;;;8.68;;
74080;SDS011;62438;52.228;6.864;2022-12-18T03:49:26;25.95;;;8.13;;
74080;SDS011;62438;52.228;6.864;2022-12-18T03:51:46;23.95;;;8.40;;
74080;SDS011;62438;52.228;6.864;2022-12-18T03:53:56;23.25;;;8.15;;
74080;SDS011;62438;52.228;6.864;2022-12-18T03:55:59;30.00;;;8.38;;
74080;SDS011;62438;52.228;6.864;2022-12-18T03:58:02;26.60;;;9.98;;
74080;SDS011;62438;52.228;6.864;2022-12-18T04:00:08;18.88;;;7.70;;
74080;SDS011;62438;52.228;6.864;2022-12-18T04:02:12;21.98;;;8.07;;
74080;SDS011;62438;52.228;6.864;2022-12-18T04:04:14;28.15;;;8.35;;
74080;SDS011;62438;52.228;6.864;2022-12-18T04:06:16;19.13;;;6.90;;
74080;SDS011;62438;52.228;6.864;2022-12-18T04:08:17;19.02;;;7.88;;
74080;SDS011;62438;52.228;6.864;2022-12-18T04:10:19;21.63;;;8.85;;
74080;SDS011;62438;52.228;6.864;2022-12-18T04:12:19;31.63;;;9.25;;
74080;SDS011;62438;52.228;6.864;2022-12-18T04:14:19;18.63;;;7.13;;
74080;SDS011;62438;52.228;6.864;2022-12-18T04:16:20;22.98;;;9.02;;
74080;SDS011;62438;52.228;6.864;2022-12-18T04:18:20;18.60;;;6.85;;
74080;SDS011;62438;52.228;6.864;2022-12-18T04:20:21;21.08;;;8.80;;
74080;SDS011;62438;52.228;6.864;2022-12-18T04:22:21;25.25;;;8.52;;
74080;SDS011;62438;52.228;6.864;2022-12-18T04:24:21;20.75;;;8.02;;
74080;SDS011;62438;52.228;6.864;2022-12-18T04:26:22;16.33;;;6.47;;
74080;SDS011;62438;52.228;6.864;2022-12-18T04:28:23;22.67;;;8.68;;
74080;SDS011;62438;52.228;6.864;2022-12-18T04:30:23;22.08;;;7.90;;
74080;SDS011;62438;52.228;6.864;2022-12-18T04:32:24;18.67;;;6.90;;
74080;SDS011;62438;52.228;6.864;2022-12-18T04:34:24;23.45;;;8.50;;
74080;SDS011;62438;52.228;6.864;2022-12-18T04:36:25;17.33;;;7.00;;
74080;SDS011;62438;52.228;6.864;2022-12-18T04:38:25;23.45;;;8.15;;
74080;SDS011;62438;52.228;6.864;2022-12-18T04:40:26;19.13;;;7.65;;
74080;SDS011;62438;52.228;6.864;2022-12-18T04:42:26;21.30;;;7.95;;
74080;SDS011;62438;52.228;6.864;2022-12-18T04:44:26;21.30;;;8.75;;
74080;SDS011;62438;52.228;6.864;2022-12-18T04:46:27;19.73;;;6.82;;
74080;SDS011;62438;52.228;6.864;2022-12-18T04:48:27;23.42;;;8.05;;
74080;SDS011;62438;52.228;6.864;2022-12-18T04:50:28;18.90;;;7.47;;
74080;SDS011;62438;52.228;6.864;2022-12-18T04:52:28;21.40;;;8.00;;
74080;SDS011;62438;52.228;6.864;2022-12-18T04:54:29;17.65;;;7.85;;
74080;SDS011;62438;52.228;6.864;2022-12-18T04:56:30;18.05;;;6.93;;
74080;SDS011;62438;52.228;6.864;2022-12-18T04:58:31;22.33;;;8.05;;
74080;SDS011;62438;52.228;6.864;2022-12-18T05:00:32;20.00;;;6.95;;
74080;SDS011;62438;52.228;6.864;2022-12-18T05:02:32;21.00;;;6.72;;
74080;SDS011;62438;52.228;6.864;2022-12-18T05:04:32;16.65;;;6.30;;
74080;SDS011;62438;52.228;6.864;2022-12-18T05:06:33;20.35;;;7.22;;
74080;SDS011;62438;52.228;6.864;2022-12-18T05:08:33;24.10;;;8.38;;
74080;SDS011;62438;52.228;6.864;2022-12-18T05:10:34;19.35;;;6.85;;
74080;SDS011;62438;52.228;6.864;2022-12-18T05:12:34;18.40;;;6.95;;
74080;SDS011;62438;52.228;6.864;2022-12-18T05:14:55;19.80;;;7.05;;
74080;SDS011;62438;52.228;6.864;2022-12-18T05:16:55;22.02;;;8.32;;
74080;SDS011;62438;52.228;6.864;2022-12-18T05:18:56;21.27;;;6.93;;
74080;SDS011;62438;52.228;6.864;2022-12-18T05:20:56;19.80;;;7.38;;
74080;SDS011;62438;52.228;6.864;2022-12-18T05:22:57;18.92;;;6.82;;
74080;SDS011;62438;52.228;6.864;2022-12-18T05:24:57;15.00;;;6.88;;
74080;SDS011;62438;52.228;6.864;2022-12-18T05:26:58;15.43;;;5.80;;
74080;SDS011;62438;52.228;6.864;2022-12-18T05:28:58;15.38;;;6.28;;
74080;SDS011;62438;52.228;6.864;2022-12-18T05:30:59;21.55;;;6.80;;
74080;SDS011;62438;52.228;6.864;2022-12-18T05:33:02;15.75;;;6.70;;
74080;SDS011;62438;52.228;6.864;2022-12-18T05:35:03;17.75;;;4.97;;
74080;SDS011;62438;52.228;6.864;2022-12-18T05:37:04;17.95;;;6.30;;
74080;SDS011;62438;52.228;6.864;2022-12-18T05:39:05;17.75;;;6.78;;
74080;SDS011;62438;52.228;6.864;2022-12-18T05:41:06;18.58;;;7.10;;
74080;SDS011;62438;52.228;6.864;2022-12-18T05:43:07;20.95;;;6.25;;
74080;SDS011;62438;52.228;6.864;2022-12-18T05:45:08;19.13;;;6.75;;
74080;SDS011;62438;52.228;6.864;2022-12-18T05:47:08;17.20;;;6.00;;
74080;SDS011;62438;52.228;6.864;2022-12-18T05:49:09;17.25;;;7.05;;
74080;SDS011;62438;52.228;6.864;2022-12-18T05:51:10;17.80;;;5.68;;
74080;SDS011;62438;52.228;6.864;2022-12-18T05:53:13;18.13;;;7.18;;
74080;SDS011;62438;52.228;6.864;2022-12-18T05:55:16;15.30;;;6.28;;
74080;SDS011;62438;52.228;6.864;2022-12-18T05:57:16;12.45;;;5.85;;
74080;SDS011;62438;52.228;6.864;2022-12-18T05:59:17;15.63;;;6.43;;
74080;SDS011;62438;52.228;6.864;2022-12-18T06:01:19;16.23;;;6.38;;
74080;SDS011;62438;52.228;6.864;2022-12-18T06:03:21;15.02;;;5.80;;
74080;SDS011;62438;52.228;6.864;2022-12-18T06:05:22;14.02;;;7.05;;
74080;SDS011;62438;52.228;6.864;2022-12-18T06:07:22;16.73;;;6.13;;
74080;SDS011;62438;52.228;6.864;2022-12-18T06:09:22;15.50;;;5.97;;
74080;SDS011;62438;52.228;6.864;2022-12-18T06:11:23;14.40;;;5.78;;
74080;SDS011;62438;52.228;6.864;2022-12-18T06:13:25;15.25;;;6.00;;
74080;SDS011;62438;52.228;6.864;2022-12-18T06:15:25;15.80;;;6.55;;
74080;SDS011;62438;52.228;6.864;2022-12-18T06:17:32;15.80;;;6.38;;
74080;SDS011;62438;52.228;6.864;2022-12-18T06:19:33;13.70;;;5.88;;
74080;SDS011;62438;52.228;6.864;2022-12-18T06:21:33;16.92;;;6.45;;
74080;SDS011;62438;52.228;6.864;2022-12-18T06:23:34;16.73;;;6.30;;
74080;SDS011;62438;52.228;6.864;2022-12-18T06:25:36;15.57;;;5.88;;
74080;SDS011;62438;52.228;6.864;2022-12-18T06:27:38;16.10;;;6.18;;
74080;SDS011;62438;52.228;6.864;2022-12-18T06:29:38;14.43;;;5.95;;
74080;SDS011;62438;52.228;6.864;2022-12-18T06:31:39;19.67;;;6.00;;
74080;SDS011;62438;52.228;6.864;2022-12-18T06:33:39;18.05;;;6.55;;
74080;SDS011;62438;52.228;6.864;2022-12-18T06:35:40;15.45;;;5.97;;
74080;SDS011;62438;52.228;6.864;2022-12-18T06:37:41;14.38;;;6.45;;
74080;SDS011;62438;52.228;6.864;2022-12-18T06:39:41;15.38;;;6.55;;
74080;SDS011;62438;52.228;6.864;2022-12-18T06:41:41;19.23;;;6.82;;
74080;SDS011;62438;52.228;6.864;2022-12-18T06:43:42;17.85;;;6.68;;
74080;SDS011;62438;52.228;6.864;2022-12-18T06:45:43;17.98;;;7.25;;
74080;SDS011;62438;52.228;6.864;2022-12-18T06:47:43;18.73;;;6.40;;
74080;SDS011;62438;52.228;6.864;2022-12-18T06:49:44;17.67;;;7.63;;
74080;SDS011;62438;52.228;6.864;2022-12-18T06:51:44;19.75;;;7.53;;
74080;SDS011;62438;52.228;6.864;2022-12-18T06:53:44;15.93;;;5.95;;
74080;SDS011;62438;52.228;6.864;2022-12-18T06:55:45;15.77;;;6.10;;
74080;SDS011;62438;52.228;6.864;2022-12-18T06:57:45;16.20;;;6.95;;
74080;SDS011;62438;52.228;6.864;2022-12-18T06:59:46;22.25;;;8.07;;
74080;SDS011;62438;52.228;6.864;2022-12-18T07:01:46;17.85;;;7.88;;
74080;SDS011;62438;52.228;6.864;2022-12-18T07:03:47;19.45;;;7.50;;
74080;SDS011;62438;52.228;6.864;2022-12-18T07:05:53;13.30;;;5.60;;
74080;SDS011;62438;52.228;6.864;2022-12-18T07:07:53;20.05;;;7.30;;
74080;SDS011;62438;52.228;6.864;2022-12-18T07:09:53;21.95;;;7.60;;
74080;SDS011;62438;52.228;6.864;2022-12-18T07:11:54;14.93;;;6.60;;
74080;SDS011;62438;52.228;6.864;2022-12-18T07:13:54;16.83;;;6.90;;
74080;SDS011;62438;52.228;6.864;2022-12-18T07:15:54;18.85;;;7.00;;
74080;SDS011;62438;52.228;6.864;2022-12-18T07:17:55;16.40;;;7.03;;
74080;SDS011;62438;52.228;6.864;2022-12-18T07:19:55;19.38;;;7.07;;
74080;SDS011;62438;52.228;6.864;2022-12-18T07:21:56;16.45;;;7.63;;
74080;SDS011;62438;52.228;6.864;2022-12-18T07:23:56;18.38;;;7.85;;
74080;SDS011;62438;52.228;6.864;2022-12-18T07:25:59;17.95;;;7.05;;
74080;SDS011;62438;52.228;6.864;2022-12-18T07:28:01;17.40;;;7.13;;
74080;SDS011;62438;52.228;6.864;2022-12-18T07:30:03;15.93;;;7.00;;
74080;SDS011;62438;52.228;6.864;2022-12-18T07:32:03;15.88;;;6.57;;
74080;SDS011;62438;52.228;6.864;2022-12-18T07:34:04;22.73;;;6.45;;
74080;SDS011;62438;52.228;6.864;2022-12-18T07:36:05;14.95;;;6.35;;
74080;SDS011;62438;52.228;6.864;2022-12-18T07:38:06;13.32;;;5.80;;
74080;SDS011;62438;52.228;6.864;2022-12-18T07:40:07;22.48;;;8.45;;
74080;SDS011;62438;52.228;6.864;2022-12-18T07:42:08;16.58;;;8.43;;
74080;SDS011;62438;52.228;6.864;2022-12-18T07:44:27;16.88;;;5.55;;
74080;SDS011;62438;52.228;6.864;2022-12-18T07:46:28;17.83;;;7.50;;
74080;SDS011;62438;52.228;6.864;2022-12-18T07:48:28;18.15;;;7.85;;
74080;SDS011;62438;52.228;6.864;2022-12-18T07:50:29;19.33;;;8.13;;
74080;SDS011;62438;52.228;6.864;2022-12-18T07:52:29;15.25;;;5.82;;
74080;SDS011;62438;52.228;6.864;2022-12-18T07:54:30;18.92;;;7.63;;
74080;SDS011;62438;52.228;6.864;2022-12-18T07:56:30;17.60;;;7.95;;
74080;SDS011;62438;52.228;6.864;2022-12-18T07:58:32;19.13;;;6.53;;
74080;SDS011;62438;52.228;6.864;2022-12-18T08:00:33;20.77;;;7.05;;
74080;SDS011;62438;52.228;6.864;2022-12-18T08:02:34;14.73;;;6.22;;
74080;SDS011;62438;52.228;6.864;2022-12-18T08:04:34;16.70;;;5.80;;
74080;SDS011;62438;52.228;6.864;2022-12-18T08:06:35;18.52;;;6.10;;
74080;SDS011;62438;52.228;6.864;2022-12-18T08:08:35;14.65;;;5.88;;
74080;SDS011;62438;52.228;6.864;2022-12-18T08:10:37;15.73;;;6.28;;
74080;SDS011;62438;52.228;6.864;2022-12-18T08:12:38;16.50;;;5.90;;
74080;SDS011;62438;52.228;6.864;2022-12-18T08:14:39;17.67;;;6.55;;
74080;SDS011;62438;52.228;6.864;2022-12-18T08:16:39;14.07;;;5.35;;
74080;SDS011;62438;52.228;6.864;2022-12-18T08:18:40;15.48;;;6.32;;
74080;SDS011;62438;52.228;6.864;2022-12-18T08:20:40;17.60;;;6.60;;
74080;SDS011;62438;52.228;6.864;2022-12-18T08:22:41;14.32;;;6.22;;
74080;SDS011;62438;52.228;6.864;2022-12-18T08:24:42;18.00;;;5.43;;
74080;SDS011;62438;52.228;6.864;2022-12-18T08:26:42;15.00;;;6.30;;
74080;SDS011;62438;52.228;6.864;2022-12-18T08:28:42;13.20;;;5.35;;
74080;SDS011;62438;52.228;6.864;2022-12-18T08:30:46;14.60;;;5.57;;
74080;SDS011;62438;52.228;6.864;2022-12-18T08:32:52;13.95;;;5.53;;
74080;SDS011;62438;52.228;6.864;2022-12-18T08:34:54;13.88;;;5.20;;
74080;SDS011;62438;52.228;6.864;2022-12-18T08:36:54;13.02;;;5.57;;
74080;SDS011;62438;52.228;6.864;2022-12-18T08:38:54;11.95;;;4.97;;
74080;SDS011;62438;52.228;6.864;2022-12-18T08:40:58;15.38;;;6.53;;
74080;SDS011;62438;52.228;6.864;2022-12-18T08:43:00;17.52;;;5.78;;
74080;SDS011;62438;52.228;6.864;2022-12-18T08:45:19;14.02;;;5.50;;
74080;SDS011;62438;52.228;6.864;2022-12-18T08:47:19;16.05;;;5.57;;
74080;SDS011;62438;52.228;6.864;2022-12-18T08:49:19;14.05;;;6.00;;
74080;SDS011;62438;52.228;6.864;2022-12-18T08:51:20;16.33;;;6.18;;
74080;SDS011;62438;52.228;6.864;2022-12-18T08:53:20;14.95;;;5.97;;
74080;SDS011;62438;52.228;6.864;2022-12-18T08:55:21;12.77;;;4.97;;
74080;SDS011;62438;52.228;6.864;2022-12-18T08:57:21;15.10;;;5.90;;
74080;SDS011;62438;52.228;6.864;2022-12-18T08:59:22;17.05;;;5.60;;
74080;SDS011;62438;52.228;6.864;2022-12-18T09:01:23;15.60;;;6.03;;
74080;SDS011;62438;52.228;6.864;2022-12-18T09:03:24;14.85;;;5.38;;
74080;SDS011;62438;52.228;6.864;2022-12-18T09:05:24;17.05;;;5.82;;
74080;SDS011;62438;52.228;6.864;2022-12-18T09:07:24;16.92;;;6.25;;
74080;SDS011;62438;52.228;6.864;2022-12-18T09:09:25;15.57;;;5.93;;
74080;SDS011;62438;52.228;6.864;2022-12-18T09:11:27;13.93;;;5.05;;
74080;SDS011;62438;52.228;6.864;2022-12-18T09:13:28;16.88;;;5.65;;
74080;SDS011;62438;52.228;6.864;2022-12-18T09:15:29;14.27;;;5.25;;
74080;SDS011;62438;52.228;6.864;2022-12-18T09:17:30;12.25;;;5.38;;
74080;SDS011;62438;52.228;6.864;2022-12-18T09:19:30;16.73;;;5.05;;
74080;SDS011;62438;52.228;6.864;2022-12-18T09:21:31;12.02;;;4.45;;
74080;SDS011;62438;52.228;6.864;2022-12-18T09:23:34;14.20;;;4.50;;
74080;SDS011;62438;52.228;6.864;2022-12-18T09:25:35;12.80;;;4.40;;
74080;SDS011;62438;52.228;6.864;2022-12-18T09:27:36;11.90;;;4.15;;
74080;SDS011;62438;52.228;6.864;2022-12-18T09:29:37;11.68;;;4.63;;
74080;SDS011;62438;52.228;6.864;2022-12-18T09:31:37;11.68;;;5.05;;
74080;SDS011;62438;52.228;6.864;2022-12-18T09:33:38;13.52;;;5.45;;
74080;SDS011;62438;52.228;6.864;2022-12-18T09:35:39;12.80;;;4.40;;
74080;SDS011;62438;52.228;6.864;2022-12-18T09:37:41;16.25;;;4.65;;
74080;SDS011;62438;52.228;6.864;2022-12-18T09:39:42;14.00;;;5.03;;
74080;SDS011;62438;52.228;6.864;2022-12-18T09:41:44;9.55;;;4.07;;
74080;SDS011;62438;52.228;6.864;2022-12-18T09:43:48;14.07;;;5.35;;
74080;SDS011;62438;52.228;6.864;2022-12-18T09:45:52;11.88;;;4.47;;
74080;SDS011;62438;52.228;6.864;2022-12-18T09:47:58;12.43;;;5.30;;
74080;SDS011;62438;52.228;6.864;2022-12-18T09:49:59;14.98;;;5.35;;
74080;SDS011;62438;52.228;6.864;2022-12-18T09:52:05;13.15;;;4.93;;
74080;SDS011;62438;52.228;6.864;2022-12-18T09:54:36;12.48;;;4.72;;
74080;SDS011;62438;52.228;6.864;2022-12-18T09:56:43;11.90;;;4.70;;
74080;SDS011;62438;52.228;6.864;2022-12-18T10:00:47;13.70;;;4.85;;
74080;SDS011;62438;52.228;6.864;2022-12-18T10:02:48;14.75;;;5.35;;
74080;SDS011;62438;52.228;6.864;2022-12-18T10:07:12;12.35;;;4.45;;
74080;SDS011;62438;52.228;6.864;2022-12-18T10:09:43;12.15;;;4.47;;
74080;SDS011;62438;52.228;6.864;2022-12-18T10:20:44;15.05;;;4.78;;
74080;SDS011;62438;52.228;6.864;2022-12-18T10:27:15;13.50;;;5.80;;
74080;SDS011;62438;52.228;6.864;2022-12-18T10:29:22;13.48;;;5.20;;
74080;SDS011;62438;52.228;6.864;2022-12-18T10:31:23;16.52;;;4.78;;
74080;SDS011;62438;52.228;6.864;2022-12-18T10:33:27;11.40;;;4.93;;
74080;SDS011;62438;52.228;6.864;2022-12-18T10:35:29;11.60;;;5.20;;
74080;SDS011;62438;52.228;6.864;2022-12-18T10:37:30;12.88;;;4.15;;
74080;SDS011;62438;52.228;6.864;2022-12-18T10:39:30;13.20;;;4.88;;
74080;SDS011;62438;52.228;6.864;2022-12-18T10:41:31;13.45;;;4.63;;
74080;SDS011;62438;52.228;6.864;2022-12-18T10:43:36;14.40;;;4.93;;
74080;SDS011;62438;52.228;6.864;2022-12-18T10:45:41;12.27;;;4.90;;
74080;SDS011;62438;52.228;6.864;2022-12-18T10:47:44;11.15;;;4.32;;
74080;SDS011;62438;52.228;6.864;2022-12-18T10:49:48;11.60;;;4.75;;
74080;SDS011;62438;52.228;6.864;2022-12-18T10:51:50;15.00;;;4.65;;
74080;SDS011;62438;52.228;6.864;2022-12-18T10:54:04;11.45;;;4.30;;
74080;SDS011;62438;52.228;6.864;2022-12-18T10:56:20;16.45;;;5.28;;
74080;SDS011;62438;52.228;6.864;2022-12-18T11:00:33;12.73;;;4.68;;
74080;SDS011;62438;52.228;6.864;2022-12-18T11:02:35;12.15;;;4.65;;
74080;SDS011;62438;52.228;6.864;2022-12-18T11:04:37;12.27;;;5.07;;
74080;SDS011;62438;52.228;6.864;2022-12-18T11:06:58;14.50;;;5.10;;
74080;SDS011;62438;52.228;6.864;2022-12-18T11:11:20;11.50;;;4.47;;
74080;SDS011;62438;52.228;6.864;2022-12-18T11:13:22;13.90;;;4.90;;
74080;SDS011;62438;52.228;6.864;2022-12-18T11:15:28;12.35;;;4.57;;
74080;SDS011;62438;52.228;6.864;2022-12-18T11:17:33;12.05;;;4.80;;
74080;SDS011;62438;52.228;6.864;2022-12-18T11:19:39;11.48;;;4.75;;
74080;SDS011;62438;52.228;6.864;2022-12-18T11:21:41;10.68;;;4.72;;
74080;SDS011;62438;52.228;6.864;2022-12-18T11:24:00;13.40;;;5.13;;
74080;SDS011;62438;52.228;6.864;2022-12-18T11:26:01;12.20;;;4.47;;
74080;SDS011;62438;52.228;6.864;2022-12-18T11:30:48;13.13;;;5.00;;
74080;SDS011;62438;52.228;6.864;2022-12-18T11:32:34;12.85;;;4.47;;
74080;SDS011;62438;52.228;6.864;2022-12-18T11:34:38;17.02;;;5.72;;
74080;SDS011;62438;52.228;6.864;2022-12-18T11:36:42;12.20;;;4.78;;
74080;SDS011;62438;52.228;6.864;2022-12-18T11:38:44;13.73;;;5.20;;
74080;SDS011;62438;52.228;6.864;2022-12-18T11:40:47;13.05;;;4.85;;
74080;SDS011;62438;52.228;6.864;2022-12-18T11:43:11;11.63;;;4.40;;
74080;SDS011;62438;52.228;6.864;2022-12-18T11:45:27;10.55;;;3.80;;
74080;SDS011;62438;52.228;6.864;2022-12-18T11:49:47;11.60;;;4.68;;
74080;SDS011;62438;52.228;6.864;2022-12-18T11:51:57;13.20;;;4.85;;
74080;SDS011;62438;52.228;6.864;2022-12-18T11:54:18;11.30;;;5.15;;
74080;SDS011;62438;52.228;6.864;2022-12-18T11:56:34;11.90;;;4.38;;
74080;SDS011;62438;52.228;6.864;2022-12-18T12:08:58;11.05;;;5.05;;
74080;SDS011;62438;52.228;6.864;2022-12-18T12:10:51;11.25;;;4.22;;
74080;SDS011;62438;52.228;6.864;2022-12-18T12:15:29;11.70;;;4.85;;
74080;SDS011;62438;52.228;6.864;2022-12-18T12:18:06;10.85;;;4.32;;
74080;SDS011;62438;52.228;6.864;2022-12-18T12:22:13;13.02;;;4.15;;
74080;SDS011;62438;52.228;6.864;2022-12-18T12:24:27;11.75;;;4.53;;
74080;SDS011;62438;52.228;6.864;2022-12-18T12:26:35;12.00;;;5.20;;
74080;SDS011;62438;52.228;6.864;2022-12-18T12:29:04;12.10;;;4.20;;
74080;SDS011;62438;52.228;6.864;2022-12-18T12:31:33;12.88;;;4.90;;
74080;SDS011;62438;52.228;6.864;2022-12-18T12:38:08;9.23;;;4.13;;
74080;SDS011;62438;52.228;6.864;2022-12-18T12:40:13;10.40;;;4.15;;
74080;SDS011;62438;52.228;6.864;2022-12-18T12:42:19;12.98;;;4.82;;
74080;SDS011;62438;52.228;6.864;2022-12-18T12:44:56;14.05;;;4.55;;
74080;SDS011;62438;52.228;6.864;2022-12-18T12:47:04;11.63;;;4.63;;
74080;SDS011;62438;52.228;6.864;2022-12-18T12:49:17;11.85;;;4.65;;
74080;SDS011;62438;52.228;6.864;2022-12-18T12:51:26;12.18;;;4.38;;
74080;SDS011;62438;52.228;6.864;2022-12-18T12:53:31;11.55;;;4.47;;
74080;SDS011;62438;52.228;6.864;2022-12-18T12:55:35;10.40;;;3.97;;
74080;SDS011;62438;52.228;6.864;2022-12-18T12:57:37;12.40;;;3.88;;
74080;SDS011;62438;52.228;6.864;2022-12-18T12:59:50;10.52;;;4.68;;
74080;SDS011;62438;52.228;6.864;2022-12-18T13:02:15;12.07;;;4.53;;
74080;SDS011;62438;52.228;6.864;2022-12-18T13:06:57;11.05;;;4.53;;
74080;SDS011;62438;52.228;6.864;2022-12-18T13:09:03;11.88;;;4.82;;
74080;SDS011;62438;52.228;6.864;2022-12-18T13:11:05;13.07;;;4.82;;
74080;SDS011;62438;52.228;6.864;2022-12-18T13:13:55;12.38;;;4.45;;
74080;SDS011;62438;52.228;6.864;2022-12-18T13:16:03;11.18;;;3.78;;
74080;SDS011;62438;52.228;6.864;2022-12-18T13:20:10;11.77;;;3.88;;
74080;SDS011;62438;52.228;6.864;2022-12-18T13:22:28;12.30;;;4.30;;
74080;SDS011;62438;52.228;6.864;2022-12-18T13:24:33;12.30;;;4.47;;
74080;SDS011;62438;52.228;6.864;2022-12-18T13:26:34;10.95;;;4.53;;